Terminal Aerodrome Forecast
Issued by NWS Quad Cities IA IL

Home | Current Version | Previous Version | Text Only | Print | Product List | Glossary On
Versions: 1 2 3 4 5 6 7 8 9 10 11 12 13 14 15 16 17 18 19 20 21 22 23 24 25 26 27 28 29 30 31 32 33 34 35 36
266
FTUS43 KDVN 280957 AAC
TAFMLI
TAF AMD
KMLI 280957Z 2810/2906 VRB03KT 6SM BR SCT009
      TEMPO 2810/2813 2SM BR
     FM281500 13007KT P6SM SCT025=

USA.gov is the U.S. government's official web portal to all federal, state and local government web resources and services.